createdAt,value
2019-02-27T00:01:12.044Z,62.53
2019-02-27T00:03:39.853Z,62.63
2019-02-27T00:06:07.631Z,62.34
2019-02-27T00:08:35.530Z,61.68
2019-02-27T00:11:03.373Z,61.47
2019-02-27T00:13:31.115Z,61.34
2019-02-27T00:15:58.860Z,61.57
2019-02-27T00:18:26.578Z,61.86
2019-02-27T00:20:54.352Z,62.05
2019-02-27T00:23:24.130Z,62.50
2019-02-27T00:25:51.912Z,62.46
2019-02-27T00:28:23.166Z,62.31
2019-02-27T00:30:49.339Z,62.39
2019-02-27T00:33:17.083Z,62.28
2019-02-27T00:35:44.872Z,62.42
2019-02-27T00:38:12.815Z,62.52
2019-02-27T00:40:40.584Z,62.76
2019-02-27T00:43:08.363Z,62.43
2019-02-27T00:45:39.657Z,62.24
2019-02-27T00:48:05.768Z,62.20
2019-02-27T00:50:33.508Z,62.10
2019-02-27T00:53:01.270Z,62.22
2019-02-27T00:55:29.118Z,61.89
2019-02-27T00:57:57.048Z,62.35
2019-02-27T01:00:24.782Z,62.41
2019-02-27T01:02:53.628Z,61.99
2019-02-27T01:05:21.468Z,61.64
2019-02-27T01:07:51.933Z,61.94
2019-02-27T01:10:19.048Z,62.29
2019-02-27T01:12:46.806Z,62.08
2019-02-27T01:15:14.518Z,61.84
2019-02-27T01:17:42.443Z,61.31
2019-02-27T01:20:11.482Z,61.64
2019-02-27T01:22:39.763Z,61.93
2019-02-27T01:25:07.617Z,62.26
2019-02-27T01:27:37.852Z,62.11
2019-02-27T01:30:06.457Z,61.80
2019-02-27T01:32:34.213Z,62.01
2019-02-27T01:35:02.146Z,62.41
2019-02-27T01:37:31.677Z,62.79
2019-02-27T01:39:59.567Z,63.12
2019-02-27T01:42:32.026Z,63.46
2019-02-27T01:44:58.167Z,63.34
2019-02-27T01:47:25.935Z,63.53
2019-02-27T01:49:53.675Z,63.80
2019-02-27T01:52:21.437Z,63.58
2019-02-27T01:54:49.577Z,63.47
2019-02-27T01:57:17.397Z,63.34
2019-02-27T01:59:45.146Z,63.13
2019-02-27T02:02:12.995Z,63.12
2019-02-27T02:04:40.983Z,62.98
2019-02-27T02:07:08.859Z,63.18
2019-02-27T02:09:38.273Z,63.25
2019-02-27T02:12:16.668Z,62.80
2019-02-27T02:15:12.009Z,62.92
2019-02-27T02:18:33.978Z,62.35
2019-02-27T02:21:34.336Z,62.39
2019-02-27T02:25:14.627Z,63.14
2019-02-27T02:28:15.448Z,63.52
2019-02-27T02:31:41.728Z,63.67
2019-02-27T02:34:52.441Z,63.96
2019-02-27T02:38:12.097Z,64.23
2019-02-27T02:41:38.928Z,64.31
2019-02-27T02:45:02.276Z,64.17
2019-02-27T02:48:18.418Z,64.36
2019-02-27T02:51:29.115Z,64.06
2019-02-27T02:54:26.608Z,63.84
2019-02-27T02:57:55.708Z,63.93
2019-02-27T03:00:51.272Z,64.06
2019-02-27T03:04:12.965Z,64.31
2019-02-27T03:07:38.038Z,64.09
2019-02-27T03:10:33.521Z,63.48
2019-02-27T03:14:17.563Z,63.65
2019-02-27T03:17:59.566Z,63.29
2019-02-27T03:21:00.368Z,63.25
2019-02-27T03:24:28.386Z,63.09
2019-02-27T03:27:48.932Z,63.26
2019-02-27T03:31:18.767Z,63.58
2019-02-27T03:34:54.826Z,63.65
2019-02-27T03:38:23.793Z,64.02
2019-02-27T03:41:58.446Z,64.43
2019-02-27T03:44:43.179Z,64.69
2019-02-27T03:47:36.314Z,64.34
2019-02-27T03:51:01.398Z,64.40
2019-02-27T03:54:02.273Z,64.43
2019-02-27T03:56:59.719Z,64.60
2019-02-27T04:00:34.138Z,64.85
2019-02-27T04:03:44.887Z,64.98
2019-02-27T04:07:01.659Z,64.98
2019-02-27T04:09:29.388Z,65.15
2019-02-27T04:11:57.324Z,64.71
2019-02-27T04:14:30.161Z,64.80
2019-02-27T04:16:58.100Z,64.86
2019-02-27T04:19:26.003Z,64.84
2019-02-27T04:21:53.732Z,64.76
2019-02-27T04:24:22.418Z,64.71
2019-02-27T04:26:50.944Z,64.64
2019-02-27T04:29:18.739Z,64.68
2019-02-27T04:31:46.632Z,64.81
2019-02-27T04:34:14.380Z,64.53
2019-02-27T04:36:46.946Z,64.48
2019-02-27T04:39:11.923Z,65.01
2019-02-27T04:41:39.847Z,64.96
2019-02-27T04:44:07.583Z,64.99
2019-02-27T04:46:35.505Z,65.25
2019-02-27T04:49:04.876Z,65.26
2019-02-27T04:51:33.933Z,65.32
2019-02-27T04:54:06.374Z,65.60
2019-02-27T04:56:31.502Z,65.53
2019-02-27T04:58:59.239Z,65.64
2019-02-27T05:01:27.168Z,65.96
2019-02-27T05:03:54.900Z,66.37
2019-02-27T05:06:22.820Z,66.50
2019-02-27T05:08:53.358Z,66.91
2019-02-27T05:11:21.151Z,66.74
2019-02-27T05:13:49.071Z,66.61
2019-02-27T05:16:16.990Z,66.74
2019-02-27T05:18:44.714Z,66.62
2019-02-27T05:21:12.625Z,66.38
2019-02-27T05:23:40.527Z,66.53
2019-02-27T05:26:08.295Z,66.35
2019-02-27T05:28:36.042Z,66.29
2019-02-27T05:31:03.912Z,66.31
2019-02-27T05:33:35.811Z,66.12
2019-02-27T05:36:01.291Z,66.39
2019-02-27T05:38:29.228Z,65.97
2019-02-27T05:40:59.887Z,65.60
2019-02-27T05:43:26.798Z,65.31
2019-02-27T05:45:54.568Z,65.56
2019-02-27T05:48:22.305Z,65.25
2019-02-27T05:50:50.052Z,65.12
2019-02-27T05:53:22.138Z,64.97
2019-02-27T05:55:47.627Z,64.85
2019-02-27T05:58:15.625Z,64.83
2019-02-27T06:00:43.371Z,64.77
2019-02-27T06:03:11.166Z,64.73
2019-02-27T06:05:38.925Z,64.45
2019-02-27T06:08:06.897Z,64.52
2019-02-27T06:10:34.639Z,64.32
2019-02-27T06:13:02.359Z,64.90
2019-02-27T06:15:30.158Z,64.95
2019-02-27T06:17:57.933Z,64.86
2019-02-27T06:20:25.675Z,64.72
2019-02-27T06:22:53.605Z,64.73
2019-02-27T06:25:23.188Z,65.94
2019-02-27T06:27:51.129Z,65.73
2019-02-27T06:30:18.869Z,65.46
2019-02-27T06:32:46.807Z,64.46
2019-02-27T06:35:14.676Z,64.65
2019-02-27T06:37:42.595Z,64.44
2019-02-27T06:40:12.571Z,64.30
2019-02-27T06:42:40.501Z,64.16
2019-02-27T06:45:10.271Z,64.47
2019-02-27T06:47:39.391Z,64.32
2019-02-27T06:50:09.551Z,64.46
2019-02-27T06:52:37.364Z,64.25
2019-02-27T06:55:05.819Z,64.37
2019-02-27T06:57:33.604Z,64.30
2019-02-27T07:00:02.995Z,64.35
2019-02-27T07:02:30.996Z,64.48
2019-02-27T07:04:58.742Z,64.22
2019-02-27T07:07:28.802Z,63.61
2019-02-27T07:09:56.371Z,63.38
2019-02-27T07:12:24.234Z,62.89
2019-02-27T07:14:51.988Z,62.65
2019-02-27T07:17:19.728Z,62.45
2019-02-27T07:19:49.747Z,61.96
2019-02-27T07:22:17.270Z,61.32
2019-02-27T07:24:45.032Z,61.88
2019-02-27T07:27:12.800Z,61.34
2019-02-27T07:29:42.754Z,61.47
2019-02-27T07:32:10.402Z,61.00
2019-02-27T07:34:38.182Z,60.57
2019-02-27T07:37:05.939Z,60.69
2019-02-27T07:39:33.719Z,60.21
2019-02-27T07:42:01.517Z,60.12
2019-02-27T07:44:29.284Z,59.77
2019-02-27T07:46:58.002Z,59.76
2019-02-27T07:49:28.338Z,59.58
2019-02-27T07:51:57.783Z,59.02
2019-02-27T07:54:28.803Z,59.00
2019-02-27T07:56:54.836Z,58.61
2019-02-27T07:59:22.614Z,58.14
2019-02-27T08:01:50.341Z,58.27
2019-02-27T08:04:19.515Z,57.57
2019-02-27T08:06:47.781Z,57.46
2019-02-27T08:09:15.717Z,57.13
2019-02-27T08:11:47.057Z,56.78
2019-02-27T08:14:13.512Z,56.81
2019-02-27T08:16:41.254Z,56.32
2019-02-27T08:19:11.411Z,55.68
2019-02-27T08:21:38.663Z,55.14
2019-02-27T08:24:07.551Z,54.82
2019-02-27T08:26:36.431Z,53.63
2019-02-27T08:29:04.774Z,53.35
2019-02-27T08:31:32.525Z,52.19
2019-02-27T08:34:00.297Z,51.31
2019-02-27T08:36:28.026Z,50.68
2019-02-27T08:38:55.950Z,50.74
2019-02-27T08:41:23.735Z,50.19
2019-02-27T08:43:51.473Z,49.13
2019-02-27T08:46:19.246Z,48.56
2019-02-27T08:48:49.890Z,48.60
2019-02-27T08:51:17.152Z,48.24
2019-02-27T08:53:44.912Z,47.65
2019-02-27T08:56:12.948Z,47.92
2019-02-27T08:58:40.786Z,47.80
2019-02-27T09:01:10.512Z,48.06
2019-02-27T09:03:38.259Z,47.53
2019-02-27T09:06:06.028Z,47.41
2019-02-27T09:08:33.786Z,46.61
2019-02-27T09:11:05.544Z,46.84
2019-02-27T09:13:31.400Z,46.48
2019-02-27T09:15:59.342Z,46.03
2019-02-27T09:18:27.084Z,46.26
2019-02-27T09:20:55.026Z,45.98
2019-02-27T09:23:22.768Z,45.76
2019-02-27T09:25:57.028Z,45.60
2019-02-27T09:28:20.352Z,44.19
2019-02-27T09:30:48.320Z,43.71
2019-02-27T09:33:17.014Z,43.41
2019-02-27T09:35:45.804Z,42.23
2019-02-27T09:38:13.501Z,42.04
2019-02-27T09:40:41.277Z,41.54
2019-02-27T09:43:09.047Z,41.33
2019-02-27T09:45:36.797Z,40.35
2019-02-27T09:48:04.887Z,40.48
2019-02-27T09:50:40.877Z,39.31
2019-02-27T09:53:08.711Z,38.16
2019-02-27T09:55:36.515Z,38.58
2019-02-27T09:58:09.869Z,38.24
2019-02-27T10:00:40.762Z,38.46
2019-02-27T10:03:08.620Z,38.04
2019-02-27T10:05:37.460Z,38.12
2019-02-27T10:08:07.480Z,38.28
2019-02-27T10:10:35.498Z,37.83
2019-02-27T10:13:04.121Z,37.85
2019-02-27T10:15:31.961Z,38.00
2019-02-27T10:17:59.706Z,37.65
2019-02-27T10:20:27.475Z,36.88
2019-02-27T10:22:55.254Z,37.42
2019-02-27T10:25:23.063Z,37.63
2019-02-27T10:27:50.825Z,37.91
2019-02-27T10:30:18.759Z,37.94
2019-02-27T10:32:46.563Z,38.12
2019-02-27T10:35:15.069Z,37.64
2019-02-27T10:37:42.967Z,36.37
2019-02-27T10:40:13.239Z,34.52
2019-02-27T10:42:41.015Z,31.11
2019-02-27T10:45:10.141Z,26.60
2019-02-27T10:47:39.950Z,23.61
2019-02-27T10:50:08.306Z,24.10
2019-02-27T10:52:36.060Z,26.09
2019-02-27T10:55:03.939Z,24.04
2019-02-27T10:57:36.668Z,19.66
2019-02-27T11:00:01.354Z,17.40
2019-02-27T11:02:29.012Z,16.08
2019-02-27T11:04:56.698Z,17.04
2019-02-27T11:07:24.504Z,18.68
2019-02-27T11:09:52.299Z,20.33
2019-02-27T11:12:20.131Z,21.67
2019-02-27T11:14:47.877Z,23.44
2019-02-27T11:17:15.670Z,24.19
2019-02-27T11:19:43.391Z,24.21
2019-02-27T11:22:11.276Z,19.39
2019-02-27T11:24:39.028Z,17.65
2019-02-27T11:27:06.950Z,16.61
2019-02-27T11:29:36.732Z,16.13
2019-02-27T11:32:04.603Z,15.54
2019-02-27T11:34:32.354Z,14.42
2019-02-27T11:37:00.144Z,13.01
2019-02-27T11:39:30.494Z,11.33
2019-02-27T11:41:57.688Z,10.47
2019-02-27T11:44:25.496Z,11.81
2019-02-27T11:46:58.610Z,13.22
2019-02-27T11:49:23.235Z,13.65
2019-02-27T11:51:53.196Z,12.13
2019-02-27T11:54:20.687Z,10.99
2019-02-27T11:56:48.456Z,10.43
2019-02-27T11:59:16.263Z,10.29
2019-02-27T12:01:44.020Z,9.31
2019-02-27T12:04:11.790Z,8.62
2019-02-27T12:06:41.605Z,8.05
2019-02-27T12:09:09.165Z,8.15
2019-02-27T12:11:36.959Z,8.48
2019-02-27T12:14:06.541Z,7.65
2019-02-27T12:16:34.381Z,7.07
2019-02-27T12:19:02.340Z,7.23
2019-02-27T12:21:30.108Z,6.74
2019-02-27T12:23:57.871Z,6.58
2019-02-27T12:26:25.655Z,6.61
2019-02-27T12:28:53.678Z,6.66
2019-02-27T12:31:21.479Z,7.02
2019-02-27T12:33:49.218Z,6.65
2019-02-27T12:36:18.676Z,6.56
2019-02-27T12:38:46.722Z,6.51
2019-02-27T12:41:14.521Z,6.50
2019-02-27T12:43:42.304Z,6.32
2019-02-27T12:46:10.081Z,6.77
2019-02-27T12:48:38.175Z,7.01
2019-02-27T12:51:06.054Z,6.85
2019-02-27T12:53:33.853Z,6.83
2019-02-27T12:56:01.590Z,6.71
2019-02-27T12:58:29.681Z,6.70
2019-02-27T13:00:57.432Z,6.63
2019-02-27T13:03:25.192Z,6.58
2019-02-27T13:05:52.975Z,6.37
2019-02-27T13:08:20.744Z,6.28
2019-02-27T13:10:48.748Z,6.27
2019-02-27T13:13:16.630Z,6.47
2019-02-27T13:15:44.404Z,7.91
2019-02-27T13:18:12.183Z,8.79
2019-02-27T13:20:39.967Z,8.72
2019-02-27T13:23:07.749Z,9.48
2019-02-27T13:25:35.510Z,8.95
2019-02-27T13:28:03.307Z,8.05
2019-02-27T13:30:31.105Z,8.02
2019-02-27T13:33:01.109Z,7.44
2019-02-27T13:35:29.090Z,7.43
2019-02-27T13:37:56.961Z,7.61
2019-02-27T13:40:24.762Z,7.17
2019-02-27T13:42:53.545Z,7.07
2019-02-27T13:45:23.692Z,7.06
2019-02-27T13:47:51.466Z,7.23
2019-02-27T13:50:22.352Z,7.06
2019-02-27T13:52:50.725Z,7.06
2019-02-27T13:55:18.777Z,7.02
2019-02-27T13:57:46.586Z,7.83
2019-02-27T14:00:25.842Z,7.84
2019-02-27T14:02:53.559Z,7.83
2019-02-27T14:05:21.344Z,7.75
2019-02-27T14:07:49.121Z,7.77
2019-02-27T14:10:19.955Z,7.89
2019-02-27T14:12:46.794Z,8.29
2019-02-27T14:15:15.173Z,8.68
2019-02-27T14:17:42.916Z,8.58
2019-02-27T14:20:13.914Z,8.42
2019-02-27T14:22:41.885Z,8.15
2019-02-27T14:25:12.871Z,8.26
2019-02-27T14:27:40.737Z,8.29
2019-02-27T14:30:13.597Z,8.85
2019-02-27T14:32:41.385Z,8.90
2019-02-27T14:35:09.169Z,8.60
2019-02-27T14:37:37.080Z,8.57
2019-02-27T14:40:06.951Z,8.93
2019-02-27T14:42:34.746Z,9.54
2019-02-27T14:45:05.631Z,9.08
2019-02-27T14:47:32.493Z,9.12
2019-02-27T14:50:00.418Z,9.30
2019-02-27T14:52:28.370Z,9.96
2019-02-27T14:54:56.161Z,9.86
2019-02-27T14:57:23.932Z,9.90
2019-02-27T14:59:51.715Z,9.95
2019-02-27T15:02:22.050Z,9.92
2019-02-27T15:04:49.116Z,10.11
2019-02-27T15:07:16.879Z,10.19
2019-02-27T15:09:47.840Z,10.68
2019-02-27T15:12:14.285Z,10.95
2019-02-27T15:14:42.056Z,11.41
2019-02-27T15:17:09.790Z,11.69
2019-02-27T15:19:37.564Z,12.70
2019-02-27T15:22:05.366Z,14.02
2019-02-27T15:24:34.825Z,14.54
2019-02-27T15:27:02.764Z,14.04
2019-02-27T15:29:30.592Z,14.49
2019-02-27T15:31:58.325Z,15.30
2019-02-27T15:34:26.102Z,15.77
2019-02-27T15:36:53.856Z,16.85
2019-02-27T15:39:21.637Z,17.87
2019-02-27T15:41:49.378Z,18.84
2019-02-27T15:44:17.148Z,19.67
2019-02-27T15:46:44.900Z,20.76
2019-02-27T15:49:15.046Z,21.55
2019-02-27T15:51:42.329Z,21.67
2019-02-27T15:54:10.098Z,21.94
2019-02-27T15:56:41.483Z,22.49
2019-02-27T15:59:08.346Z,23.28
2019-02-27T16:01:36.312Z,24.01
2019-02-27T16:04:04.111Z,24.54
2019-02-27T16:06:32.001Z,24.75
2019-02-27T16:08:59.777Z,25.08
2019-02-27T16:11:27.701Z,25.84
2019-02-27T16:13:55.441Z,26.40
2019-02-27T16:16:23.472Z,26.78
2019-02-27T16:18:51.571Z,26.90
2019-02-27T16:21:20.925Z,26.90
2019-02-27T16:23:48.944Z,27.43
2019-02-27T16:26:16.989Z,27.85
2019-02-27T16:28:46.080Z,28.52
2019-02-27T16:31:14.794Z,28.60
2019-02-27T16:33:42.556Z,28.74
2019-02-27T16:36:12.897Z,29.14
2019-02-27T16:38:41.291Z,29.35
2019-02-27T16:41:09.432Z,29.83
2019-02-27T16:43:37.360Z,30.34
2019-02-27T16:46:07.917Z,30.54
2019-02-27T16:48:35.354Z,30.81
2019-02-27T16:51:03.422Z,31.10
2019-02-27T16:53:31.182Z,31.50
2019-02-27T16:55:58.940Z,31.73
2019-02-27T16:58:32.551Z,31.88
2019-02-27T17:00:56.398Z,32.37
2019-02-27T17:03:24.152Z,32.29
2019-02-27T17:05:51.950Z,32.47
2019-02-27T17:08:19.684Z,32.71
2019-02-27T17:10:51.643Z,33.10
2019-02-27T17:13:17.159Z,33.63
2019-02-27T17:15:44.924Z,33.86
2019-02-27T17:18:12.849Z,33.63
2019-02-27T17:20:45.886Z,33.98
2019-02-27T17:23:10.999Z,34.20
2019-02-27T17:25:38.844Z,34.34
2019-02-27T17:28:06.592Z,34.62
2019-02-27T17:30:37.719Z,34.96
2019-02-27T17:33:05.319Z,34.99
2019-02-27T17:35:33.196Z,34.88
2019-02-27T17:38:00.981Z,35.05
2019-02-27T17:40:29.326Z,35.12
2019-02-27T17:42:57.246Z,35.27
2019-02-27T17:45:25.061Z,35.89
2019-02-27T17:47:52.847Z,35.76
2019-02-27T17:50:20.655Z,35.76
2019-02-27T17:52:49.058Z,36.33
2019-02-27T17:55:17.577Z,36.98
2019-02-27T17:57:46.354Z,37.09
2019-02-27T18:00:19.217Z,37.75
2019-02-27T18:02:46.982Z,37.42
2019-02-27T18:05:14.820Z,38.19
2019-02-27T18:07:42.712Z,39.07
2019-02-27T18:10:11.478Z,39.13
2019-02-27T18:12:39.267Z,39.65
2019-02-27T18:15:09.316Z,39.20
2019-02-27T18:17:37.060Z,38.81
2019-02-27T18:20:05.502Z,39.05
2019-02-27T18:22:33.251Z,39.64
2019-02-27T18:25:01.015Z,40.04
2019-02-27T18:27:28.754Z,39.51
2019-02-27T18:29:56.513Z,39.24
2019-02-27T18:32:24.311Z,39.68
2019-02-27T18:34:54.408Z,39.20
2019-02-27T18:37:21.727Z,39.33
2019-02-27T18:39:49.518Z,37.39
2019-02-27T18:42:20.569Z,37.24
2019-02-27T18:44:47.346Z,36.83
2019-02-27T18:47:15.162Z,37.63
2019-02-27T18:49:42.942Z,38.67
2019-02-27T18:52:10.750Z,38.16
2019-02-27T18:54:38.528Z,38.21
2019-02-27T18:57:06.295Z,38.27
2019-02-27T18:59:34.076Z,38.13
2019-02-27T19:02:01.900Z,38.52
2019-02-27T19:04:34.978Z,39.31
2019-02-27T19:06:59.302Z,39.55
2019-02-27T19:09:29.338Z,40.28
2019-02-27T19:11:56.746Z,40.60
2019-02-27T19:14:24.517Z,40.33
2019-02-27T19:16:54.941Z,39.75
2019-02-27T19:19:23.310Z,39.74
2019-02-27T19:21:51.111Z,39.37
2019-02-27T19:24:18.892Z,39.74
2019-02-27T19:26:46.672Z,40.74
2019-02-27T19:29:14.412Z,40.80
2019-02-27T19:31:42.287Z,41.42
2019-02-27T19:34:10.361Z,41.19
2019-02-27T19:36:38.729Z,40.52
2019-02-27T19:39:07.134Z,40.32
2019-02-27T19:41:38.711Z,40.80
2019-02-27T19:44:04.657Z,41.34
2019-02-27T19:46:32.473Z,41.60
2019-02-27T19:49:00.867Z,42.12
2019-02-27T19:51:29.921Z,42.27
2019-02-27T19:53:57.717Z,42.68
2019-02-27T19:56:25.533Z,42.87
2019-02-27T19:58:53.325Z,43.13
2019-02-27T20:01:21.166Z,43.01
2019-02-27T20:03:48.913Z,42.98
2019-02-27T20:06:16.753Z,43.01
2019-02-27T20:08:45.589Z,42.95
2019-02-27T20:11:13.488Z,42.75
2019-02-27T20:13:41.352Z,41.95
2019-02-27T20:16:09.169Z,41.87
2019-02-27T20:18:37.057Z,42.15
2019-02-27T20:21:05.161Z,42.53
2019-02-27T20:23:32.959Z,42.54
2019-02-27T20:26:00.797Z,42.67
2019-02-27T20:28:31.797Z,42.78
2019-02-27T20:30:59.309Z,42.93
2019-02-27T20:33:27.049Z,43.12
2019-02-27T20:35:55.685Z,43.43
2019-02-27T20:38:24.791Z,43.48
2019-02-27T20:40:53.983Z,43.67
2019-02-27T20:43:21.808Z,43.94
2019-02-27T20:45:49.596Z,44.22
2019-02-27T20:48:17.480Z,44.41
2019-02-27T20:50:45.944Z,44.59
2019-02-27T20:53:13.764Z,44.66
2019-02-27T20:55:41.734Z,44.82
2019-02-27T20:58:09.626Z,44.72
2019-02-27T21:00:37.407Z,44.90
2019-02-27T21:03:05.318Z,45.08
2019-02-27T21:05:33.312Z,45.24
2019-02-27T21:08:02.383Z,45.36
2019-02-27T21:10:30.413Z,45.53
2019-02-27T21:12:58.182Z,45.74
2019-02-27T21:15:29.370Z,45.78
2019-02-27T21:17:58.487Z,46.02
2019-02-27T21:20:26.001Z,46.12
2019-02-27T21:22:53.778Z,45.61
2019-02-27T21:25:21.532Z,45.61
2019-02-27T21:27:49.430Z,45.43
2019-02-27T21:30:18.853Z,45.23
2019-02-27T21:32:47.099Z,45.19
2019-02-27T21:35:14.826Z,45.13
2019-02-27T21:37:45.608Z,45.29
2019-02-27T21:40:13.260Z,45.64
2019-02-27T21:42:41.184Z,46.07
2019-02-27T21:45:12.524Z,46.30
2019-02-27T21:47:40.394Z,46.47
2019-02-27T21:50:10.012Z,46.67
2019-02-27T21:52:37.772Z,46.64
2019-02-27T21:55:06.010Z,46.88
2019-02-27T21:57:33.778Z,46.65
2019-02-27T22:00:01.615Z,46.95
2019-02-27T22:02:30.100Z,47.05
2019-02-27T22:04:58.439Z,47.08
2019-02-27T22:07:26.202Z,46.82
2019-02-27T22:09:54.237Z,46.85
2019-02-27T22:12:22.068Z,47.09
2019-02-27T22:14:49.835Z,46.63
2019-02-27T22:17:17.619Z,46.64
2019-02-27T22:19:45.407Z,46.88
2019-02-27T22:22:13.175Z,47.23
2019-02-27T22:24:40.914Z,47.57
2019-02-27T22:27:09.281Z,47.50
2019-02-27T22:29:38.505Z,47.76
2019-02-27T22:32:06.269Z,48.21
2019-02-27T22:34:34.028Z,48.26
2019-02-27T22:37:01.811Z,48.38
2019-02-27T22:39:31.642Z,48.36
2019-02-27T22:41:59.207Z,48.25
2019-02-27T22:44:29.116Z,48.13
2019-02-27T22:46:56.675Z,48.40
2019-02-27T22:49:24.461Z,48.46
2019-02-27T22:51:52.427Z,48.26
2019-02-27T22:54:20.158Z,48.63
2019-02-27T22:56:51.535Z,48.50
2019-02-27T22:59:17.744Z,48.44
2019-02-27T23:01:50.977Z,48.43
2019-02-27T23:04:18.871Z,48.51
2019-02-27T23:06:47.048Z,48.33
2019-02-27T23:09:16.550Z,48.56
2019-02-27T23:11:44.289Z,47.96
2019-02-27T23:14:12.446Z,47.70
2019-02-27T23:16:40.208Z,47.66
2019-02-27T23:19:07.977Z,47.88
2019-02-27T23:21:36.007Z,48.13
2019-02-27T23:24:04.135Z,48.49
2019-02-27T23:26:32.065Z,48.44
2019-02-27T23:28:59.829Z,48.71
2019-02-27T23:31:27.584Z,49.01
2019-02-27T23:33:55.316Z,49.17
2019-02-27T23:36:23.046Z,49.29
2019-02-27T23:38:50.983Z,49.30
2019-02-27T23:41:22.633Z,49.43
2019-02-27T23:43:48.456Z,49.60
2019-02-27T23:46:18.477Z,49.65
2019-02-27T23:48:46.156Z,49.38
2019-02-27T23:51:16.712Z,49.50
2019-02-27T23:53:43.658Z,49.68
2019-02-27T23:56:11.480Z,49.60
2019-02-27T23:58:39.698Z,49.32
